Time;durP1;ratioP1;P1;durP2;ratioP2;P2;SDS_P1;SDS_P2;PMS_P1;PMS_P2;Temp;Humidity;BMP_temperature;BMP_pressure;BME280_temperature;BME280_humidity;BME280_pressure;Samples;Min_cycle;Max_cycle;Signal;HPM_P1;HPM_P2
2023/07/11 00:01:01;;;;;;;7.93;6.18;;;16.30;99.90;;;;;;5049009;28;20040;-60
2023/07/11 00:03:26;;;;;;;7.82;5.82;;;16.30;99.90;;;;;;5008963;28;20032;-63
2023/07/11 00:06:09;;;;;;;7.22;6.45;;;16.30;99.90;;;;;;5041659;28;20029;-60
2023/07/11 00:15:18;;;;;;;5.63;4.82;;;16.10;99.90;;;;;;5034183;28;20032;-59
2023/07/11 00:17:46;;;;;;;5.88;5.10;;;16.10;99.90;;;;;;5048905;28;20104;-58
2023/07/11 00:20:13;;;;;;;5.95;5.35;;;16.10;99.90;;;;;;5027400;28;20036;-59
2023/07/11 00:22:39;;;;;;;6.50;5.40;;;16.00;99.90;;;;;;5048297;28;20025;-57
2023/07/11 00:25:06;;;;;;;7.53;5.60;;;16.00;99.90;;;;;;5027346;28;20025;-59
2023/07/11 00:27:32;;;;;;;6.20;5.60;;;16.00;99.90;;;;;;5048004;28;20547;-60
2023/07/11 00:29:57;;;;;;;7.00;6.30;;;15.90;99.90;;;;;;5034719;28;20179;-58
2023/07/11 00:32:23;;;;;;;6.47;5.85;;;15.90;99.90;;;;;;5029245;28;20048;-60
2023/07/11 00:34:48;;;;;;;5.97;5.38;;;15.90;99.90;;;;;;5030057;28;20038;-59
2023/07/11 00:37:15;;;;;;;6.20;5.28;;;15.90;99.90;;;;;;5047898;28;20037;-55
2023/07/11 00:39:41;;;;;;;7.28;5.78;;;15.80;99.90;;;;;;5027228;28;20033;-57
2023/07/11 00:42:08;;;;;;;6.53;5.72;;;15.80;99.90;;;;;;5047844;28;20544;-60
2023/07/11 00:44:52;;;;;;;7.10;5.95;;;15.80;99.90;;;;;;5026930;28;20525;-57
2023/07/11 00:47:18;;;;;;;6.85;5.82;;;15.80;99.90;;;;;;5047739;28;20029;-60
2023/07/11 00:49:46;;;;;;;6.65;5.85;;;15.70;99.90;;;;;;5027123;28;20498;-58
2023/07/11 00:52:15;;;;;;;6.38;5.55;;;15.70;99.90;;;;;;5047874;28;20785;-60
2023/07/11 00:54:45;;;;;;;6.78;5.65;;;15.70;99.90;;;;;;5026617;28;20041;-58
2023/07/11 00:57:11;;;;;;;7.30;5.80;;;15.70;99.90;;;;;;5028633;28;20536;-60
2023/07/11 00:59:37;;;;;;;6.05;5.38;;;15.60;99.90;;;;;;5030279;28;20037;-58
2023/07/11 01:02:08;;;;;;;5.53;5.03;;;15.60;99.90;;;;;;5047555;28;20422;-54
2023/07/11 01:04:35;;;;;;;6.80;5.43;;;15.50;99.90;;;;;;5034339;28;20071;-59
2023/07/11 01:07:02;;;;;;;9.20;5.80;;;15.50;99.90;;;;;;5042586;28;20033;-55
2023/07/11 01:09:28;;;;;;;7.38;6.20;;;15.50;99.90;;;;;;5026845;28;20117;-56
2023/07/11 01:11:56;;;;;;;6.10;5.50;;;15.50;99.90;;;;;;5034680;28;20117;-55
2023/07/11 01:14:23;;;;;;;7.20;6.50;;;15.50;99.90;;;;;;5047500;28;20617;-54
2023/07/11 01:16:49;;;;;;;5.80;5.30;;;15.40;99.90;;;;;;5029596;28;20041;-56
2023/07/11 01:19:14;;;;;;;7.93;5.60;;;15.40;99.90;;;;;;5050993;28;20059;-57
2023/07/11 01:21:40;;;;;;;6.80;6.10;;;15.40;99.90;;;;;;5030445;28;20071;-56
2023/07/11 01:24:05;;;;;;;5.90;5.32;;;15.30;99.90;;;;;;5051230;28;20029;-56
2023/07/11 01:26:31;;;;;;;6.32;5.53;;;15.30;99.90;;;;;;5030533;28;20029;-58
2023/07/11 01:28:57;;;;;;;6.75;5.47;;;15.20;99.90;;;;;;5031969;28;20448;-54
2023/07/11 01:31:22;;;;;;;6.53;5.55;;;15.20;99.90;;;;;;5042683;28;20034;-57
2023/07/11 01:33:48;;;;;;;7.43;5.85;;;15.20;99.90;;;;;;5031943;28;20026;-56
2023/07/11 01:36:14;;;;;;;7.93;6.88;;;15.10;99.90;;;;;;5042717;28;20049;-56
2023/07/11 01:38:40;;;;;;;7.63;5.30;;;15.10;99.90;;;;;;5031770;28;20025;-57
2023/07/11 01:41:06;;;;;;;7.07;5.65;;;15.10;99.90;;;;;;5048799;28;20632;-55
2023/07/11 01:43:32;;;;;;;6.40;5.80;;;15.00;99.90;;;;;;5051657;28;20068;-57
2023/07/11 01:45:57;;;;;;;7.03;5.88;;;15.00;99.90;;;;;;5030142;28;20029;-56
2023/07/11 01:48:23;;;;;;;9.38;6.40;;;15.00;99.90;;;;;;5031611;28;20022;-57
2023/07/11 01:50:48;;;;;;;5.75;5.18;;;14.90;99.90;;;;;;5046957;28;20037;-56
2023/07/11 01:53:14;;;;;;;6.78;5.70;;;14.90;99.90;;;;;;5031579;28;20106;-58
2023/07/11 01:55:39;;;;;;;8.15;5.07;;;14.80;99.90;;;;;;5048131;28;20028;-56
2023/07/11 01:58:05;;;;;;;5.95;5.35;;;14.80;99.90;;;;;;5031376;28;20108;-55
2023/07/11 02:00:30;;;;;;;6.00;5.40;;;14.80;99.90;;;;;;5050515;28;20417;-56
2023/07/11 02:02:56;;;;;;;6.40;5.80;;;14.80;99.90;;;;;;5029886;28;20029;-56
2023/07/11 02:05:22;;;;;;;7.53;5.15;;;14.70;99.90;;;;;;5036808;28;20033;-55
2023/07/11 02:07:47;;;;;;;6.65;5.60;;;14.70;99.90;;;;;;5030524;28;20034;-57
2023/07/11 02:10:13;;;;;;;5.57;5.07;;;14.70;99.90;;;;;;5050192;28;20439;-55
2023/07/11 02:12:38;;;;;;;7.13;5.22;;;14.70;99.90;;;;;;5029863;28;20102;-54
2023/07/11 02:15:04;;;;;;;6.97;5.57;;;14.60;99.90;;;;;;5050389;28;20084;-53
2023/07/11 02:17:29;;;;;;;7.43;5.53;;;14.60;99.90;;;;;;5029761;28;20037;-51
2023/07/11 02:19:55;;;;;;;6.82;5.20;;;14.60;99.90;;;;;;5050077;28;20025;-53
2023/07/11 02:22:22;;;;;;;6.18;5.53;;;14.50;99.90;;;;;;5029664;28;20505;-53
2023/07/11 02:24:47;;;;;;;7.38;5.70;;;14.50;99.90;;;;;;5050423;28;20029;-52
2023/07/11 02:27:13;;;;;;;6.10;5.20;;;14.50;99.90;;;;;;5029482;28;20305;-50
2023/07/11 02:29:38;;;;;;;5.40;4.82;;;14.40;99.90;;;;;;5044488;28;20087;-50
2023/07/11 02:32:04;;;;;;;8.68;5.40;;;14.40;99.90;;;;;;5028706;28;20033;-52
2023/07/11 02:34:30;;;;;;;6.97;5.78;;;14.40;99.90;;;;;;5050076;28;20025;-50
2023/07/11 02:36:55;;;;;;;6.57;5.80;;;14.40;99.90;;;;;;5029379;28;20034;-53
2023/07/11 02:39:20;;;;;;;7.38;5.63;;;14.40;99.90;;;;;;5050002;28;20044;-52
2023/07/11 02:41:46;;;;;;;6.30;5.70;;;14.30;99.90;;;;;;5029182;28;20505;-53
2023/07/11 02:44:11;;;;;;;6.70;5.85;;;14.30;99.90;;;;;;5049762;28;20029;-52
2023/07/11 02:46:37;;;;;;;7.57;5.80;;;14.30;99.90;;;;;;5029134;28;20555;-53
2023/07/11 02:49:03;;;;;;;6.90;5.85;;;14.20;99.90;;;;;;5049473;28;20072;-52
2023/07/11 02:51:29;;;;;;;6.22;5.63;;;14.20;99.90;;;;;;5031364;28;20144;-51
2023/07/11 02:53:55;;;;;;;6.35;5.22;;;14.20;99.90;;;;;;5030419;28;20036;-53
2023/07/11 02:56:21;;;;;;;6.53;5.57;;;14.20;99.90;;;;;;5046123;28;20091;-50
2023/07/11 02:58:49;;;;;;;6.18;5.35;;;14.20;99.90;;;;;;5030483;28;20474;-51
2023/07/11 03:01:15;;;;;;;5.47;4.97;;;14.20;99.90;;;;;;5046986;28;20031;-51
2023/07/11 03:03:40;;;;;;;6.35;5.72;;;14.10;99.90;;;;;;5030438;28;20017;-53
2023/07/11 03:06:06;;;;;;;8.18;5.32;;;14.10;99.90;;;;;;5046361;28;20035;-51
2023/07/11 03:08:32;;;;;;;6.15;5.43;;;14.20;99.90;;;;;;5028681;28;20091;-54
2023/07/11 03:10:59;;;;;;;9.48;6.55;;;14.10;99.90;;;;;;5049196;28;20043;-51
2023/07/11 03:13:25;;;;;;;9.60;5.85;;;14.10;99.90;;;;;;5028568;28;20048;-51
2023/07/11 03:15:50;;;;;;;6.63;5.93;;;14.10;99.90;;;;;;5049278;28;20029;-52
2023/07/11 03:18:16;;;;;;;6.13;5.50;;;14.10;99.90;;;;;;5028620;28;20033;-53
2023/07/11 03:20:42;;;;;;;5.68;5.13;;;14.10;99.90;;;;;;5049156;28;20485;-51
2023/07/11 03:23:10;;;;;;;5.88;5.22;;;14.20;99.90;;;;;;5028608;28;20034;-53
2023/07/11 03:25:36;;;;;;;6.93;5.95;;;14.20;99.90;;;;;;5049407;28;20558;-51
2023/07/11 03:28:02;;;;;;;5.30;4.80;;;14.20;99.90;;;;;;5028444;28;20037;-51
2023/07/11 03:30:27;;;;;;;5.88;5.25;;;14.20;99.90;;;;;;5048819;28;20112;-52
2023/07/11 03:32:53;;;;;;;7.30;6.20;;;14.30;99.90;;;;;;5028563;28;20037;-51
2023/07/11 03:35:18;;;;;;;6.43;5.72;;;14.30;99.90;;;;;;5044741;28;20044;-50
2023/07/11 03:37:44;;;;;;;5.57;5.07;;;14.30;99.90;;;;;;5047734;28;20033;-53
2023/07/11 03:40:10;;;;;;;5.95;5.35;;;14.40;99.90;;;;;;5028286;28;20463;-53
2023/07/11 03:42:35;;;;;;;6.75;6.05;;;14.40;99.90;;;;;;5048775;28;20546;-52
2023/07/11 03:45:01;;;;;;;12.18;5.80;;;14.60;99.90;;;;;;5028360;28;20037;-49
2023/07/11 03:47:26;;;;;;;7.10;5.20;;;14.90;99.90;;;;;;5048606;28;20059;-53
2023/07/11 03:49:52;;;;;;;6.32;5.20;;;15.60;99.90;;;;;;5028278;28;20037;-56
2023/07/11 03:52:17;;;;;;;5.13;4.63;;;16.30;99.90;;;;;;5048274;28;20423;-54
2023/07/11 03:54:42;;;;;;;4.85;4.35;;;17.10;99.90;;;;;;5028058;28;20099;-51
2023/07/11 03:57:08;;;;;;;5.82;4.55;;;17.90;99.90;;;;;;5048408;28;20543;-53
2023/07/11 03:59:34;;;;;;;5.95;4.80;;;18.70;99.90;;;;;;5036687;28;20032;-50
2023/07/11 04:01:59;;;;;;;4.25;3.58;;;19.40;99.90;;;;;;5029809;28;20489;-51
2023/07/11 04:04:25;;;;;;;4.10;3.70;;;20.00;99.90;;;;;;5038996;28;20061;-53
2023/07/11 04:06:50;;;;;;;3.45;3.15;;;20.70;99.90;;;;;;5042682;28;20087;-52
2023/07/11 04:09:16;;;;;;;4.78;3.65;;;21.30;99.90;;;;;;5027725;28;20045;-51
2023/07/11 04:11:41;;;;;;;4.00;3.42;;;21.80;99.90;;;;;;5029182;28;20095;-52
2023/07/11 04:14:10;;;;;;;4.63;4.22;;;22.40;99.90;;;;;;5041062;28;20468;-46
2023/07/11 04:16:35;;;;;;;3.38;3.08;;;23.00;98.60;;;;;;5029177;28;20022;-54
2023/07/11 04:19:01;;;;;;;3.85;3.55;;;23.60;97.30;;;;;;5040732;28;20083;-53
2023/07/11 04:21:27;;;;;;;3.85;3.38;;;24.00;94.70;;;;;;5028984;28;20053;-50
2023/07/11 04:23:53;;;;;;;4.13;3.72;;;24.50;93.70;;;;;;5043081;28;20044;-50
2023/07/11 04:26:18;;;;;;;4.82;3.55;;;25.00;91.60;;;;;;5028957;28;20029;-53
2023/07/11 04:28:44;;;;;;;3.72;3.42;;;25.40;90.20;;;;;;5044229;28;20041;-52
2023/07/11 04:31:09;;;;;;;3.72;3.42;;;25.80;87.60;;;;;;5028738;28;20046;-52
2023/07/11 04:33:35;;;;;;;3.60;3.30;;;26.40;85.40;;;;;;5034140;28;20032;-53
2023/07/11 04:36:08;;;;;;;3.90;3.50;;;26.80;82.30;;;;;;5028872;28;20030;-50
2023/07/11 04:38:34;;;;;;;4.20;3.80;;;27.20;73.60;;;;;;5045730;28;20040;-52
2023/07/11 04:41:03;;;;;;;4.18;3.78;;;27.60;75.90;;;;;;5028799;28;20021;-52
2023/07/11 04:43:29;;;;;;;3.83;3.53;;;27.90;73.00;;;;;;5047839;28;20574;-48
2023/07/11 04:45:58;;;;;;;4.22;3.83;;;28.30;72.60;;;;;;5008886;28;20034;-51
2023/07/11 04:48:23;;;;;;;3.13;2.83;;;28.70;69.40;;;;;;5047518;28;20036;-47
2023/07/11 04:50:56;;;;;;;3.35;3.05;;;29.10;67.60;;;;;;5031386;28;20497;-52
2023/07/11 04:53:21;;;;;;;3.35;3.05;;;29.50;61.30;;;;;;5013113;28;20061;-51
2023/07/11 04:55:53;;;;;;;3.63;3.22;;;30.00;63.30;;;;;;5025840;28;20021;-53
2023/07/11 04:58:18;;;;;;;3.67;3.35;;;30.30;61.60;;;;;;5030144;28;20548;-52
2023/07/11 05:00:44;;;;;;;3.92;3.47;;;30.80;59.00;;;;;;5029644;28;20040;-51
2023/07/11 05:03:09;;;;;;;4.55;4.15;;;31.20;56.20;;;;;;5050875;28;20040;-51
2023/07/11 05:05:35;;;;;;;4.55;3.97;;;31.50;53.50;;;;;;5034272;28;20147;-51
2023/07/11 05:08:00;;;;;;;4.18;3.60;;;31.80;51.50;;;;;;5031931;28;20389;-49
2023/07/11 05:10:26;;;;;;;3.63;3.33;;;32.10;49.70;;;;;;5038772;28;20033;-51
2023/07/11 05:12:51;;;;;;;3.55;3.25;;;32.40;46.60;;;;;;5050338;28;20527;-56
2023/07/11 05:15:17;;;;;;;5.47;3.42;;;32.80;44.40;;;;;;5030176;28;20033;-49
2023/07/11 05:17:42;;;;;;;4.20;3.35;;;33.20;42.60;;;;;;5050278;28;20568;-54
2023/07/11 05:20:08;;;;;;;5.65;3.38;;;33.70;40.60;;;;;;5029645;28;20036;-52
2023/07/11 05:22:34;;;;;;;3.72;3.10;;;34.00;38.40;;;;;;5031469;28;20022;-56
2023/07/11 05:24:59;;;;;;;4.55;2.85;;;34.50;36.10;;;;;;5048139;28;20108;-53
2023/07/11 05:27:25;;;;;;;3.08;2.72;;;34.90;34.40;;;;;;5050855;28;20384;-52
2023/07/11 05:29:51;;;;;;;4.38;2.72;;;35.30;32.50;;;;;;5030959;28;20045;-51
2023/07/11 05:32:16;;;;;;;2.58;2.33;;;35.50;30.90;;;;;;5030809;28;20033;-54
2023/07/11 05:34:42;;;;;;;3.03;2.67;;;35.90;29.50;;;;;;5044379;28;20030;-54
2023/07/11 05:37:08;;;;;;;2.40;2.20;;;36.40;27.90;;;;;;5040794;28;20037;-56
2023/07/11 05:39:34;;;;;;;3.15;2.20;;;36.70;26.00;;;;;;5036398;28;20111;-56
2023/07/11 05:42:00;;;;;;;2.25;2.15;;;37.10;24.80;;;;;;5050394;28;20569;-56
2023/07/11 05:44:26;;;;;;;2.65;1.92;;;37.20;23.10;;;;;;5028788;28;20397;-54
2023/07/11 05:46:51;;;;;;;2.72;1.90;;;37.40;21.90;;;;;;5029749;28;20028;-54
2023/07/11 05:49:17;;;;;;;3.17;2.15;;;37.40;20.20;;;;;;5028563;28;20021;-54
2023/07/11 05:51:42;;;;;;;3.00;1.60;;;37.50;18.60;;;;;;5030385;28;20034;-55
2023/07/11 05:54:08;;;;;;;2.10;1.90;;;38.10;17.90;;;;;;5043408;28;20278;-50
2023/07/11 05:56:34;;;;;;;2.35;1.70;;;38.60;16.60;;;;;;5030503;28;20029;-55
2023/07/11 05:58:59;;;;;;;3.38;1.80;;;38.90;15.40;;;;;;5033981;28;20098;-53
2023/07/11 06:01:27;;;;;;;3.25;1.70;;;39.30;14.50;;;;;;5032684;28;20030;-54
2023/07/11 06:04:12;;;;;;;2.40;1.60;;;39.60;13.60;;;;;;5049848;28;20261;-55
2023/07/11 06:06:41;;;;;;;2.22;2.03;;;39.70;11.60;;;;;;5017799;28;20029;-55
2023/07/11 06:09:09;;;;;;;1.70;1.60;;;39.90;12.60;;;;;;5049883;28;20033;-56
2023/07/11 06:11:35;;;;;;;2.28;1.60;;;40.30;11.80;;;;;;5027778;28;20104;-54
2023/07/11 06:14:00;;;;;;;2.10;1.55;;;40.60;10.60;;;;;;5049314;28;20128;-55
2023/07/11 06:16:25;;;;;;;3.33;1.42;;;40.80;10.00;;;;;;5028905;28;20033;-58
2023/07/11 06:18:52;;;;;;;2.50;1.63;;;41.20;9.30;;;;;;5048980;28;20033;-58
2023/07/11 06:21:18;;;;;;;1.77;1.50;;;41.40;8.60;;;;;;5031105;28;20037;-58
2023/07/11 06:23:44;;;;;;;4.80;1.80;;;41.50;7.70;;;;;;5029873;28;20033;-58
2023/07/11 06:26:10;;;;;;;3.13;1.50;;;41.30;6.90;;;;;;5034240;28;20017;-58
2023/07/11 06:28:36;;;;;;;2.78;1.30;;;41.50;6.10;;;;;;5049031;28;20541;-58
2023/07/11 06:31:01;;;;;;;2.53;1.40;;;41.30;5.10;;;;;;5038772;28;20081;-58
2023/07/11 06:33:29;;;;;;;2.95;1.40;;;41.30;4.80;;;;;;5029945;28;20460;-58
2023/07/11 06:35:55;;;;;;;2.85;1.30;;;41.20;4.90;;;;;;5027585;28;20108;-58
2023/07/11 06:38:21;;;;;;;2.50;1.38;;;41.20;4.10;;;;;;5049129;28;20040;-58
2023/07/11 06:40:54;;;;;;;3.20;1.50;;;41.60;3.70;;;;;;5028338;28;20025;-58
2023/07/11 06:43:21;;;;;;;2.95;1.45;;;41.70;2.30;;;;;;5048963;28;20029;-58
2023/07/11 06:45:48;;;;;;;2.67;1.52;;;41.90;3.10;;;;;;5027832;28;20498;-58
2023/07/11 06:48:14;;;;;;;3.70;1.55;;;42.00;2.50;;;;;;5048763;28;20026;-58
2023/07/11 06:50:40;;;;;;;3.42;1.55;;;42.10;3.00;;;;;;5035628;28;20041;-59
2023/07/11 06:53:06;;;;;;;5.55;1.55;;;42.30;2.60;;;;;;5049103;28;20025;-58
2023/07/11 06:55:31;;;;;;;3.38;1.63;;;42.20;2.50;;;;;;5027930;28;20682;-58
2023/07/11 06:57:57;;;;;;;3.70;1.48;;;42.10;2.20;;;;;;5029156;28;20045;-58
2023/07/11 07:00:24;;;;;;;2.72;1.45;;;41.70;2.00;;;;;;5041053;28;20041;-58
2023/07/11 07:02:50;;;;;;;3.00;1.55;;;42.00;2.00;;;;;;5029314;28;20033;-58
2023/07/11 07:05:15;;;;;;;3.10;1.50;;;42.30;1.80;;;;;;5034354;28;20096;-66
2023/07/11 07:07:41;;;;;;;2.42;1.50;;;42.50;1.80;;;;;;5029298;28;20076;-65
2023/07/11 07:10:07;;;;;;;2.90;1.40;;;42.40;1.60;;;;;;5046108;28;20569;-65
2023/07/11 07:12:32;;;;;;;3.17;1.70;;;42.80;1.60;;;;;;5047911;28;20033;-66
2023/07/11 07:14:58;;;;;;;3.40;1.40;;;43.30;1.50;;;;;;5044531;28;20025;-66
2023/07/11 07:17:23;;;;;;;1.73;1.30;;;43.90;1.10;;;;;;5029100;28;20064;-66
2023/07/11 07:19:49;;;;;;;2.38;1.58;;;44.20;1.00;;;;;;5045365;28;20040;-66
2023/07/11 07:22:15;;;;;;;2.70;1.50;;;44.60;1.00;;;;;;5029092;28;20040;-66
2023/07/11 07:24:41;;;;;;;3.65;1.40;;;44.50;1.00;;;;;;5048224;28;20150;-66
2023/07/11 07:27:06;;;;;;;2.35;1.33;;;44.60;1.00;;;;;;5027022;28;20521;-65
2023/07/11 07:29:32;;;;;;;5.05;2.20;;;44.80;1.00;;;;;;5043314;28;20417;-66
2023/07/11 07:31:59;;;;;;;2.80;1.90;;;44.00;1.00;;;;;;5026795;28;20525;-66
2023/07/11 07:34:24;;;;;;;2.95;1.60;;;43.70;1.00;;;;;;5047896;28;20087;-67
2023/07/11 07:36:50;;;;;;;2.78;1.55;;;44.10;1.00;;;;;;5027297;28;20500;-66
2023/07/11 07:39:15;;;;;;;6.70;1.40;;;44.20;1.00;;;;;;5047701;28;20033;-67
2023/07/11 07:41:42;;;;;;;2.58;1.52;;;44.60;1.00;;;;;;5027303;28;20041;-67
2023/07/11 07:44:08;;;;;;;4.15;1.40;;;45.00;1.00;;;;;;5047924;28;20032;-64
2023/07/11 07:46:33;;;;;;;1.55;1.20;;;45.10;1.00;;;;;;5027074;28;20037;-65
2023/07/11 07:48:59;;;;;;;1.52;1.35;;;45.10;1.00;;;;;;5047486;28;20503;-64
2023/07/11 07:51:24;;;;;;;1.70;1.15;;;45.00;1.00;;;;;;5041046;28;20037;-65
2023/07/11 07:53:50;;;;;;;2.13;1.35;;;44.90;1.00;;;;;;5048026;28;20021;-65
2023/07/11 07:56:21;;;;;;;2.45;1.38;;;44.80;1.00;;;;;;5026847;28;20120;-65
2023/07/11 07:58:48;;;;;;;2.75;1.55;;;44.80;1.00;;;;;;5047502;28;20111;-64
2023/07/11 08:01:15;;;;;;;1.98;1.45;;;44.70;1.00;;;;;;5026462;28;20029;-64
2023/07/11 08:03:41;;;;;;;2.53;1.17;;;44.90;1.00;;;;;;5047561;28;20146;-65
2023/07/11 08:06:08;;;;;;;1.60;1.27;;;44.70;1.00;;;;;;5020318;28;20057;-65
2023/07/11 08:08:33;;;;;;;2.95;1.60;;;44.70;1.00;;;;;;5047476;28;20029;-65
2023/07/11 08:11:04;;;;;;;1.65;1.25;;;44.50;1.00;;;;;;5026404;28;20037;-65
2023/07/11 08:13:30;;;;;;;3.30;1.20;;;44.30;1.00;;;;;;5047427;28;20095;-66
2023/07/11 08:15:56;;;;;;;1.58;1.17;;;44.20;1.00;;;;;;5025109;28;20025;-66
2023/07/11 08:18:21;;;;;;;2.15;1.10;;;43.80;1.00;;;;;;5047015;28;20113;-66
2023/07/11 08:20:48;;;;;;;1.40;1.30;;;43.40;1.00;;;;;;5026312;28;20029;-66
2023/07/11 08:23:14;;;;;;;2.70;1.48;;;42.90;1.00;;;;;;5047022;28;20028;-65
2023/07/11 08:25:41;;;;;;;1.52;1.10;;;42.30;1.00;;;;;;5026101;28;20025;-66
2023/07/11 08:28:06;;;;;;;2.00;1.33;;;42.30;1.00;;;;;;5047039;28;20079;-65
2023/07/11 08:30:36;;;;;;;3.65;1.67;;;42.20;1.00;;;;;;5025953;28;20083;-66
2023/07/11 08:33:02;;;;;;;1.35;1.20;;;42.10;1.00;;;;;;5027683;28;20064;-66
2023/07/11 08:35:28;;;;;;;1.92;1.30;;;42.20;1.00;;;;;;5038715;28;20041;-65
2023/07/11 08:37:54;;;;;;;2.45;1.60;;;42.10;1.00;;;;;;5027687;28;20478;-65
2023/07/11 08:40:23;;;;;;;2.38;1.30;;;41.80;1.00;;;;;;5045012;28;20017;-66
2023/07/11 08:42:48;;;;;;;1.88;1.35;;;41.80;1.00;;;;;;5047425;28;20060;-66
2023/07/11 08:45:25;;;;;;;2.08;1.35;;;41.30;1.00;;;;;;5041006;28;20401;-66
2023/07/11 08:48:00;;;;;;;2.35;1.50;;;40.10;1.00;;;;;;5027595;28;20454;-66
2023/07/11 08:50:31;;;;;;;2.50;1.40;;;38.40;1.00;;;;;;5011880;28;20034;-66
2023/07/11 08:53:11;;;;;;;1.63;1.20;;;38.10;1.00;;;;;;5027491;28;20045;-65
2023/07/11 08:55:42;;;;;;;2.22;1.50;;;38.30;1.00;;;;;;5024013;28;20026;-65
2023/07/11 08:58:14;;;;;;;2.45;1.27;;;38.70;1.00;;;;;;5027522;28;20037;-66
2023/07/11 09:00:43;;;;;;;2.28;1.20;;;39.00;1.00;;;;;;5045275;28;20017;-66
2023/07/11 09:03:32;;;;;;;2.08;1.42;;;39.00;1.00;;;;;;5047100;28;20095;-65
2023/07/11 09:06:03;;;;;;;2.08;1.25;;;39.00;1.00;;;;;;5012354;28;20108;-66
2023/07/11 09:08:30;;;;;;;1.70;1.23;;;38.80;1.00;;;;;;5007728;28;20512;-65
2023/07/11 09:11:11;;;;;;;3.20;1.70;;;38.50;1.00;;;;;;5034154;28;20045;-65
2023/07/11 09:14:08;;;;;;;1.77;1.30;;;38.10;1.00;;;;;;5007785;28;20025;-65
2023/07/11 09:16:45;;;;;;;2.50;1.08;;;37.90;1.00;;;;;;5020710;28;20212;-65
2023/07/11 09:19:16;;;;;;;2.13;1.20;;;37.80;1.00;;;;;;5007652;28;20049;-65
2023/07/11 09:22:01;;;;;;;2.80;1.38;;;37.70;1.00;;;;;;5038334;28;20029;-67
2023/07/11 09:25:00;;;;;;;3.22;1.45;;;36.90;1.00;;;;;;5047036;28;20051;-65
2023/07/11 09:27:29;;;;;;;2.25;1.20;;;36.40;1.00;;;;;;5007677;28;20041;-65
2023/07/11 09:29:56;;;;;;;2.13;1.27;;;36.00;1.00;;;;;;5036879;28;20044;-65
2023/07/11 09:32:32;;;;;;;2.13;1.08;;;36.30;1.10;;;;;;5027204;28;20595;-66
2023/07/11 09:35:06;;;;;;;2.92;1.40;;;36.20;1.20;;;;;;5007645;28;20030;-65
2023/07/11 09:37:42;;;;;;;2.17;1.60;;;35.90;1.30;;;;;;5030279;28;20044;-66
2023/07/11 09:40:14;;;;;;;2.50;1.20;;;36.00;1.00;;;;;;5015870;28;20112;-65
2023/07/11 09:42:54;;;;;;;1.55;1.23;;;36.10;1.20;;;;;;5050647;28;20021;-65
2023/07/11 09:45:24;;;;;;;4.05;1.45;;;36.40;1.10;;;;;;5028754;28;20022;-65
2023/07/11 09:48:03;;;;;;;2.38;1.30;;;36.40;1.00;;;;;;5029682;28;20378;-64
2023/07/11 09:50:40;;;;;;;1.77;1.20;;;36.30;1.00;;;;;;5015171;28;20029;-65
2023/07/11 09:53:13;;;;;;;3.13;1.40;;;35.80;1.00;;;;;;5028633;28;20013;-65
2023/07/11 09:55:39;;;;;;;2.08;1.50;;;35.10;1.00;;;;;;5027625;28;20083;-65
2023/07/11 09:58:05;;;;;;;3.28;1.45;;;34.30;1.90;;;;;;5049785;28;20044;-66
2023/07/11 10:00:30;;;;;;;4.50;1.50;;;34.40;3.00;;;;;;5029278;28;20029;-65
2023/07/11 10:02:59;;;;;;;1.58;1.20;;;33.50;3.40;;;;;;5049748;28;20040;-65
2023/07/11 10:05:25;;;;;;;1.60;1.50;;;33.60;2.80;;;;;;5033979;28;20013;-67
2023/07/11 10:08:15;;;;;;;3.03;1.33;;;33.60;2.50;;;;;;5029808;28;20056;-63
2023/07/11 10:10:52;;;;;;;2.05;1.20;;;33.50;3.20;;;;;;5022104;28;20041;-66
2023/07/11 10:13:19;;;;;;;1.45;1.20;;;33.50;3.30;;;;;;5048534;28;20117;-67
2023/07/11 10:15:51;;;;;;;2.53;1.23;;;33.50;2.40;;;;;;5029088;28;20026;-59
2023/07/11 10:18:24;;;;;;;2.00;1.60;;;33.40;3.40;;;;;;5050186;28;20032;-59
2023/07/11 10:21:15;;;;;;;2.45;1.10;;;33.10;3.00;;;;;;5023141;28;20067;-57
2023/07/11 10:23:46;;;;;;;4.15;1.55;;;32.90;2.80;;;;;;5010669;28;20106;-58
2023/07/11 10:26:21;;;;;;;2.70;1.35;;;32.70;2.80;;;;;;5030158;28;20652;-58
2023/07/11 10:29:15;;;;;;;1.25;0.93;;;32.80;2.30;;;;;;5049482;28;20115;-58
2023/07/11 10:31:51;;;;;;;3.15;1.00;;;32.60;2.20;;;;;;5009925;28;20073;-59
2023/07/11 10:34:39;;;;;;;3.58;1.40;;;32.40;2.30;;;;;;5009185;28;20064;-59
2023/07/11 10:37:19;;;;;;;2.63;1.20;;;32.20;2.50;;;;;;5029783;28;20022;-58
2023/07/11 10:39:52;;;;;;;2.08;1.13;;;32.00;2.60;;;;;;5013760;28;20030;-58
2023/07/11 10:42:45;;;;;;;4.55;1.10;;;32.00;2.70;;;;;;5028306;28;20375;-58
2023/07/11 10:45:15;;;;;;;2.55;1.23;;;31.90;3.40;;;;;;5015610;28;20033;-58
2023/07/11 10:48:04;;;;;;;1.95;1.23;;;31.70;3.00;;;;;;5028017;28;20029;-57
2023/07/11 10:50:38;;;;;;;1.20;1.00;;;31.50;3.60;;;;;;5027552;28;20021;-59
2023/07/11 10:53:16;;;;;;;1.48;1.23;;;31.50;3.50;;;;;;5016545;28;20685;-59
2023/07/11 10:55:51;;;;;;;4.25;1.27;;;31.40;3.50;;;;;;5046669;28;20075;-58
2023/07/11 10:58:19;;;;;;;;;;;31.20;3.10;;;;;;5011994;28;20029;-59
2023/07/11 11:01:12;;;;;;;1.48;1.27;;;31.00;4.90;;;;;;5027170;28;19995;-58
2023/07/11 11:03:39;;;;;;;2.25;1.17;;;31.00;3.60;;;;;;5015598;28;20033;-57
2023/07/11 11:06:33;;;;;;;2.08;1.40;;;30.40;3.90;;;;;;5037479;28;20060;-58
2023/07/11 11:09:35;;;;;;;2.75;1.33;;;30.10;5.10;;;;;;5017210;28;20570;-59
2023/07/11 11:12:10;;;;;;;1.45;1.10;;;29.90;5.20;;;;;;5033405;28;20599;-59
2023/07/11 11:15:14;;;;;;;1.83;1.40;;;29.80;4.70;;;;;;5041382;28;20036;-58
2023/07/11 11:18:19;;;;;;;1.85;1.25;;;29.80;4.70;;;;;;5025286;28;20138;-57
2023/07/11 11:21:17;;;;;;;2.28;1.20;;;29.70;5.50;;;;;;5026776;28;20021;-58
2023/07/11 11:24:17;;;;;;;1.60;1.05;;;29.70;4.90;;;;;;5016092;28;20022;-58
2023/07/11 11:27:06;;;;;;;1.63;0.93;;;29.80;5.10;;;;;;5007239;28;20096;-59
2023/07/11 11:29:56;;;;;;;1.17;0.93;;;29.80;4.20;;;;;;5030590;28;20098;-58
2023/07/11 11:32:31;;;;;;;2.92;1.20;;;29.90;4.10;;;;;;5046379;28;20025;-58
2023/07/11 11:35:23;;;;;;;1.42;1.33;;;29.90;4.60;;;;;;5016144;28;20483;-61
2023/07/11 11:38:06;;;;;;;1.50;1.38;;;29.90;5.00;;;;;;5008294;28;20094;-59
2023/07/11 11:40:37;;;;;;;3.83;1.42;;;29.90;4.70;;;;;;5026691;28;20048;-58
2023/07/11 11:43:11;;;;;;;1.98;1.25;;;29.90;5.00;;;;;;5010446;28;20029;-58
2023/07/11 11:45:39;;;;;;;3.78;1.10;;;29.90;4.70;;;;;;5026022;28;20683;-59
2023/07/11 11:48:05;;;;;;;3.53;1.05;;;29.80;4.40;;;;;;5031236;28;20036;-59
2023/07/11 11:50:35;;;;;;;3.45;1.60;;;29.70;4.20;;;;;;5032591;28;20037;-58
2023/07/11 11:53:32;;;;;;;2.03;1.30;;;29.60;4.30;;;;;;5026715;28;20056;-56
2023/07/11 11:56:01;;;;;;;1.77;1.00;;;29.40;5.20;;;;;;5026160;28;20021;-59
2023/07/11 11:58:28;;;;;;;2.58;1.17;;;29.40;4.90;;;;;;5030141;28;20108;-57
2023/07/11 12:00:55;;;;;;;2.70;1.25;;;29.40;5.30;;;;;;5030501;28;20083;-58
2023/07/11 12:03:31;;;;;;;2.08;1.35;;;29.10;5.70;;;;;;5027433;28;20064;-58
2023/07/11 12:05:59;;;;;;;3.72;1.65;;;29.00;6.30;;;;;;5026496;28;20052;-58
2023/07/11 12:08:25;;;;;;;1.77;1.35;;;29.00;5.50;;;;;;5041541;28;20104;-58
2023/07/11 12:11:18;;;;;;;4.30;1.63;;;29.10;5.50;;;;;;5030288;28;20662;-58
2023/07/11 12:14:04;;;;;;;1.85;1.25;;;29.10;5.50;;;;;;5006032;28;20033;-58
2023/07/11 12:16:32;;;;;;;1.73;1.15;;;29.10;5.70;;;;;;5020620;28;20112;-58
2023/07/11 12:18:59;;;;;;;1.67;1.35;;;29.20;5.80;;;;;;5045135;28;20039;-59
2023/07/11 12:21:44;;;;;;;2.20;1.48;;;29.30;5.70;;;;;;5024270;28;20332;-58
2023/07/11 12:24:24;;;;;;;3.03;1.50;;;29.30;6.70;;;;;;5037965;28;20041;-57
2023/07/11 12:26:52;;;;;;;2.45;1.50;;;29.00;5.80;;;;;;5023116;28;20034;-58
2023/07/11 12:29:40;;;;;;;2.42;1.38;;;28.90;6.50;;;;;;5040706;28;20065;-58
2023/07/11 12:32:30;;;;;;;2.25;1.40;;;28.80;7.00;;;;;;5022031;28;20069;-59
2023/07/11 12:35:16;;;;;;;3.45;1.17;;;28.80;6.70;;;;;;5036561;28;20532;-57
2023/07/11 12:37:59;;;;;;;2.40;1.60;;;28.80;6.60;;;;;;5038890;28;20060;-58
2023/07/11 12:40:31;;;;;;;4.57;1.90;;;28.70;7.20;;;;;;5032862;28;20689;-59
2023/07/11 12:43:00;;;;;;;1.83;1.52;;;28.40;7.90;;;;;;5026886;28;20116;-58
2023/07/11 12:45:33;;;;;;;1.70;1.27;;;28.40;7.50;;;;;;5037313;28;20037;-57
2023/07/11 12:48:15;;;;;;;3.83;1.45;;;28.50;7.60;;;;;;5027569;28;20025;-57
2023/07/11 12:50:52;;;;;;;2.08;1.30;;;28.70;7.60;;;;;;5035839;28;20033;-57
2023/07/11 12:53:19;;;;;;;2.28;1.58;;;28.70;6.80;;;;;;5010460;28;20041;-57
2023/07/11 12:55:46;;;;;;;2.80;1.45;;;28.80;6.90;;;;;;5027657;28;20089;-57
2023/07/11 12:58:27;;;;;;;1.80;1.70;;;28.80;6.80;;;;;;5013633;28;20053;-56
2023/07/11 13:00:54;;;;;;;3.60;1.83;;;28.90;7.20;;;;;;5006729;28;20038;-57
2023/07/11 13:03:24;;;;;;;2.92;1.50;;;28.80;7.10;;;;;;5027612;28;20030;-58
2023/07/11 13:05:53;;;;;;;1.98;1.40;;;28.80;7.30;;;;;;5028013;28;20547;-59
2023/07/11 13:08:20;;;;;;;3.15;1.70;;;28.80;7.30;;;;;;5026542;28;20030;-58
2023/07/11 13:10:56;;;;;;;3.55;1.65;;;28.60;7.70;;;;;;5046855;28;20401;-60
2023/07/11 13:13:22;;;;;;;5.57;2.17;;;28.60;7.90;;;;;;5011803;28;20034;-66